Time;durP1;ratioP1;P1;durP2;ratioP2;P2;SDS_P1;SDS_P2;PMS_P1;PMS_P2;Temp;Humidity;BMP_temperature;BMP_pressure;BME280_temperature;BME280_humidity;BME280_pressure;Samples;Min_cycle;Max_cycle;Signal;HPM_P1;HPM_P2
2022/10/20 00:01:37;;;;;;;25.23;17.35;;;;;;;10.52;92.57;96726.94;5054077;28;20053;-74
2022/10/20 00:04:05;;;;;;;27.35;18.00;;;;;;;10.45;92.67;96727.38;5053663;28;20055;-75
2022/10/20 00:06:33;;;;;;;30.30;19.83;;;;;;;10.51;92.51;96729.97;5053915;28;20043;-75
2022/10/20 00:09:02;;;;;;;28.52;18.88;;;;;;;10.48;92.41;96715.06;5053816;28;20071;-77
2022/10/20 00:11:28;;;;;;;29.98;19.08;;;;;;;10.44;92.48;96730.41;5053492;28;20048;-75
2022/10/20 00:13:57;;;;;;;28.50;19.23;;;;;;;10.45;92.57;96721.94;5053556;28;20060;-75
2022/10/20 00:16:25;;;;;;;29.58;19.73;;;;;;;10.45;92.61;96729.31;5053104;28;20049;-75
2022/10/20 00:18:52;;;;;;;30.83;19.52;;;;;;;10.45;92.13;96729.31;5053453;28;20055;-74
2022/10/20 00:21:22;;;;;;;32.50;20.02;;;;;;;10.48;92.03;96725.94;5052736;28;20053;-75
2022/10/20 00:23:49;;;;;;;28.08;19.17;;;;;;;10.53;91.61;96728.53;5052806;28;20044;-74
2022/10/20 00:26:17;;;;;;;29.52;19.65;;;;;;;10.47;91.21;96734.44;5052648;28;20056;-74
2022/10/20 00:28:44;;;;;;;29.35;18.20;;;;;;;10.57;91.32;96739.63;5052608;28;20044;-73
2022/10/20 00:31:12;;;;;;;31.25;19.48;;;;;;;10.55;91.12;96742.69;5051899;28;20055;-75
2022/10/20 00:33:39;;;;;;;26.33;17.33;;;;;;;10.52;90.95;96743.28;5053334;28;20423;-74
2022/10/20 00:36:08;;;;;;;26.02;18.35;;;;;;;10.50;91.36;96739.28;5052249;28;20045;-74
2022/10/20 00:38:36;;;;;;;28.10;18.38;;;;;;;10.48;90.93;96733.31;5052043;28;20040;-73
2022/10/20 00:41:03;;;;;;;28.38;18.15;;;;;;;10.54;90.72;96724.72;5051491;28;20057;-74
2022/10/20 00:43:42;;;;;;;28.75;18.10;;;;;;;10.43;91.04;96726.06;5051880;28;20041;-74
2022/10/20 00:46:11;;;;;;;29.45;17.20;;;;;;;10.45;90.58;96732.81;5051669;28;20041;-76
2022/10/20 00:48:38;;;;;;;26.45;17.40;;;;;;;10.45;90.34;96723.84;5053242;28;20052;-75
2022/10/20 00:51:06;;;;;;;26.88;16.95;;;;;;;10.38;90.84;96726.19;5052876;28;20070;-74
2022/10/20 00:53:33;;;;;;;25.52;16.70;;;;;;;10.40;90.60;96713.88;5052857;28;20055;-75
2022/10/20 00:56:01;;;;;;;26.70;17.15;;;;;;;10.50;90.66;96710.13;5052396;28;20072;-73
2022/10/20 00:58:28;;;;;;;26.02;17.02;;;;;;;10.55;89.90;96715.44;5052180;28;20650;-74
2022/10/20 01:00:58;;;;;;;26.17;16.23;;;;;;;10.52;89.72;96716.06;5052541;28;20045;-75
2022/10/20 01:03:30;;;;;;;26.40;16.48;;;;;;;10.56;89.51;96708.88;5051976;28;20541;-75
2022/10/20 01:05:57;;;;;;;31.77;17.83;;;;;;;10.52;89.17;96709.81;5052000;28;20411;-74
2022/10/20 01:08:23;;;;;;;24.90;16.20;;;;;;;10.47;88.88;96718.91;5051793;28;20045;-74
2022/10/20 01:11:01;;;;;;;28.13;16.33;;;;;;;10.40;88.54;96718.53;5052391;28;20045;-75
2022/10/20 01:13:39;;;;;;;23.27;15.82;;;;;;;10.42;88.78;96713.56;5050415;28;20044;-75
2022/10/20 01:16:13;;;;;;;26.55;15.70;;;;;;;10.42;88.11;96706.19;5032031;28;20056;-75
2022/10/20 01:18:50;;;;;;;25.58;16.30;;;;;;;10.50;88.68;96703.88;5032766;28;20120;-75
2022/10/20 01:21:38;;;;;;;22.33;15.18;;;;;;;10.51;87.91;96703.56;5032789;28;20045;-75
2022/10/20 01:24:44;;;;;;;26.45;15.43;;;;;;;10.50;87.25;96695.72;5031408;28;20416;-75
2022/10/20 01:27:28;;;;;;;20.58;14.77;;;;;;;10.41;86.87;96695.63;5020107;28;20393;-74
2022/10/20 01:30:01;;;;;;;23.63;15.00;;;;;;;10.37;87.03;96691.91;5032241;28;20427;-75
2022/10/20 01:32:35;;;;;;;;;;;;;;;10.35;87.00;96696.88;5016116;28;20045;-75
2022/10/20 01:35:04;;;;;;;;;;;;;;;10.30;86.68;96686.91;5034791;28;19928;-77
2022/10/20 01:37:39;;;;;;;23.75;15.35;;;;;;;10.27;86.36;96692.94;5037459;28;19921;-75
2022/10/20 01:40:13;;;;;;;22.10;13.77;;;;;;;10.32;86.25;96689.31;5036187;28;20045;-76
2022/10/20 01:42:43;;;;;;;25.83;14.55;;;;;;;10.26;86.08;96690.53;5038390;28;20048;-76
2022/10/20 01:45:13;;;;;;;20.52;14.60;;;;;;;10.31;85.56;96679.53;5034543;28;20075;-74
2022/10/20 01:47:40;;;;;;;23.67;14.38;;;;;;;10.14;85.55;96678.25;5057475;28;20052;-75
2022/10/20 01:50:10;;;;;;;20.58;13.82;;;;;;;10.16;85.60;96681.47;5057575;28;20045;-75
2022/10/20 01:52:37;;;;;;;18.98;13.98;;;;;;;10.15;85.57;96670.88;5057798;28;20059;-74
2022/10/20 01:55:11;;;;;;;23.45;14.38;;;;;;;10.14;85.50;96666.56;5057133;28;20052;-75
2022/10/20 01:57:55;;;;;;;24.23;13.77;;;;;;;10.11;85.53;96667.97;5057444;28;20056;-75
2022/10/20 02:00:22;;;;;;;19.80;13.35;;;;;;;10.10;84.97;96657.41;5056486;28;20064;-75
2022/10/20 02:03:04;;;;;;;20.17;14.23;;;;;;;10.07;84.74;96661.53;5058754;28;20504;-75
2022/10/20 02:05:46;;;;;;;21.70;13.00;;;;;;;10.05;84.84;96663.75;5059195;28;20407;-74
2022/10/20 02:08:18;;;;;;;18.45;12.98;;;;;;;10.07;84.00;96666.97;5058847;28;20099;-74
2022/10/20 02:10:47;;;;;;;23.52;13.82;;;;;;;10.00;84.78;96660.34;5059212;28;20110;-75
2022/10/20 02:13:18;;;;;;;17.77;12.05;;;;;;;9.95;84.12;96661.25;5058169;28;20059;-77
2022/10/20 02:15:48;;;;;;;21.60;12.88;;;;;;;9.85;84.70;96664.22;5059046;28;20131;-75
2022/10/20 02:18:18;;;;;;;21.70;14.50;;;;;;;9.86;84.38;96671.25;5059030;28;20052;-76
2022/10/20 02:20:49;;;;;;;20.23;13.00;;;;;;;9.78;84.04;96669.28;5059500;28;20041;-75
2022/10/20 02:23:16;;;;;;;18.42;13.02;;;;;;;9.77;84.25;96664.94;5058426;28;20049;-75
2022/10/20 02:25:43;;;;;;;19.02;12.25;;;;;;;9.83;84.09;96661.00;5059087;28;20049;-76
2022/10/20 02:28:13;;;;;;;19.42;12.30;;;;;;;9.71;83.77;96660.69;5058005;28;20160;-76
2022/10/20 02:30:42;;;;;;;22.85;12.60;;;;;;;9.73;84.37;96655.78;5060138;28;20518;-76
2022/10/20 02:33:10;;;;;;;17.95;12.52;;;;;;;9.71;84.17;96652.53;5058845;28;20045;-76
2022/10/20 02:35:36;;;;;;;24.35;13.68;;;;;;;9.69;84.21;96644.69;5041174;28;20049;-77
2022/10/20 02:38:04;;;;;;;18.88;12.68;;;;;;;9.63;84.13;96646.72;5058422;28;20051;-75
2022/10/20 02:40:30;;;;;;;18.60;12.20;;;;;;;9.62;83.73;96645.13;5059101;28;20414;-76
2022/10/20 02:42:57;;;;;;;18.52;12.55;;;;;;;9.65;83.17;96644.50;5058500;28;20045;-75
2022/10/20 02:45:24;;;;;;;20.52;12.00;;;;;;;9.63;84.10;96646.72;5057652;28;20048;-77
2022/10/20 02:47:52;;;;;;;19.45;12.30;;;;;;;9.46;83.91;96649.25;5057804;28;20082;-76
2022/10/20 02:50:18;;;;;;;20.15;12.25;;;;;;;9.49;83.80;96651.38;5057545;28;20048;-76
2022/10/20 02:52:45;;;;;;;20.20;11.93;;;;;;;9.45;83.79;96644.94;5057877;28;20049;-76
2022/10/20 02:55:12;;;;;;;17.25;11.13;;;;;;;9.40;83.40;96648.56;5058753;28;20049;-76
2022/10/20 02:57:38;;;;;;;19.48;12.25;;;;;;;9.45;83.94;96644.13;5058400;28;20049;-75
2022/10/20 03:00:08;;;;;;;17.88;11.00;;;;;;;9.40;83.60;96642.34;5056994;28;20067;-77
2022/10/20 03:02:34;;;;;;;17.40;11.40;;;;;;;9.47;83.45;96637.28;5057016;28;20053;-74
2022/10/20 03:05:02;;;;;;;19.27;11.45;;;;;;;9.41;83.53;96627.63;5059366;28;20041;-76
2022/10/20 03:07:29;;;;;;;20.80;10.70;;;;;;;9.35;83.84;96628.84;5057143;28;20047;-75
2022/10/20 03:09:55;;;;;;;17.85;11.38;;;;;;;9.36;84.35;96630.44;5057137;28;20045;-76
2022/10/20 03:12:22;;;;;;;14.38;10.25;;;;;;;9.31;83.55;96627.84;5057051;28;20050;-75
2022/10/20 03:14:48;;;;;;;16.02;11.00;;;;;;;9.24;82.63;96632.84;5055795;28;19921;-74
2022/10/20 03:17:15;;;;;;;16.17;10.48;;;;;;;9.14;83.39;96629.25;5055910;28;20055;-76
2022/10/20 03:19:41;;;;;;;18.45;10.25;;;;;;;9.15;82.81;96624.63;5055837;28;20042;-75
2022/10/20 03:22:11;;;;;;;19.88;10.82;;;;;;;9.26;82.77;96625.22;5053894;28;20041;-77
2022/10/20 03:24:38;;;;;;;18.55;9.88;;;;;;;9.28;82.76;96618.34;5054096;28;20045;-73
2022/10/20 03:27:04;;;;;;;15.63;9.77;;;;;;;9.34;82.71;96628.03;5053665;28;20049;-75
2022/10/20 03:29:31;;;;;;;17.02;9.60;;;;;;;9.36;82.07;96628.53;5053139;28;20410;-74
2022/10/20 03:31:58;;;;;;;15.98;9.90;;;;;;;9.34;81.99;96627.22;5052759;28;20052;-76
2022/10/20 03:34:24;;;;;;;17.23;9.90;;;;;;;9.39;81.07;96618.94;5052324;28;20080;-74
2022/10/20 03:36:51;;;;;;;14.88;9.18;;;;;;;9.37;81.51;96626.63;5053022;28;20124;-74
2022/10/20 03:39:19;;;;;;;14.18;9.60;;;;;;;9.29;81.44;96619.16;5052281;28;20063;-75
2022/10/20 03:41:45;;;;;;;15.25;8.88;;;;;;;9.28;81.44;96618.34;5052335;28;20522;-76
2022/10/20 03:44:12;;;;;;;14.65;9.07;;;;;;;9.26;81.04;96617.06;5051745;28;20045;-75
2022/10/20 03:46:39;;;;;;;16.73;9.35;;;;;;;9.18;81.37;96617.75;5052781;28;20065;-76
2022/10/20 03:49:05;;;;;;;16.98;8.02;;;;;;;9.23;81.04;96623.09;5052414;28;20036;-74
2022/10/20 03:51:32;;;;;;;14.23;7.95;;;;;;;9.10;80.99;96622.81;5052773;28;20037;-75
2022/10/20 03:54:00;;;;;;;12.68;8.20;;;;;;;9.14;80.19;96623.00;5052122;28;20041;-73
2022/10/20 03:56:28;;;;;;;15.95;8.80;;;;;;;9.03;80.48;96629.72;5052132;28;20719;-76
2022/10/20 03:58:54;;;;;;;12.10;8.27;;;;;;;9.00;80.59;96627.63;5052283;28;20063;-75
2022/10/20 04:01:31;;;;;;;14.80;8.93;;;;;;;8.99;80.26;96632.25;5051687;28;20527;-74
2022/10/20 04:03:58;;;;;;;15.63;8.25;;;;;;;9.03;80.82;96637.88;5052132;28;20567;-75
2022/10/20 04:06:24;;;;;;;16.98;8.68;;;;;;;9.02;80.92;96631.63;5052802;28;20059;-75
2022/10/20 04:08:51;;;;;;;14.57;8.02;;;;;;;8.94;80.26;96637.00;5052953;28;20052;-75
2022/10/20 04:11:17;;;;;;;12.30;8.13;;;;;;;8.80;80.74;96639.66;5054329;28;20051;-75
2022/10/20 04:13:45;;;;;;;13.20;7.97;;;;;;;8.95;80.67;96636.69;5057419;28;20044;-76
2022/10/20 04:16:12;;;;;;;15.07;8.88;;;;;;;8.89;81.23;96632.44;5057475;28;20045;-76
2022/10/20 04:18:38;;;;;;;13.80;8.52;;;;;;;8.89;81.41;96616.97;5057771;28;20045;-76
2022/10/20 04:21:05;;;;;;;14.48;8.82;;;;;;;8.80;82.05;96617.94;5057246;28;20511;-75
2022/10/20 04:23:32;;;;;;;18.27;8.90;;;;;;;8.89;81.70;96602.56;5054644;28;20560;-76
2022/10/20 04:25:58;;;;;;;13.95;8.05;;;;;;;8.86;81.83;96617.53;5053776;28;20539;-75
2022/10/20 04:28:25;;;;;;;13.68;8.57;;;;;;;8.92;81.40;96617.44;5053606;28;20044;-75
2022/10/20 04:30:56;;;;;;;12.95;8.35;;;;;;;8.87;81.04;96613.75;5054312;28;20419;-76
2022/10/20 04:33:22;;;;;;;13.10;8.38;;;;;;;8.87;81.25;96618.34;5054142;28;20072;-74
2022/10/20 04:35:49;;;;;;;16.63;8.20;;;;;;;8.85;81.13;96607.00;5053687;28;20052;-76
2022/10/20 04:38:15;;;;;;;15.57;8.02;;;;;;;8.88;80.97;96606.41;5053856;28;20112;-75
2022/10/20 04:40:42;;;;;;;13.07;8.30;;;;;;;8.91;80.87;96604.97;5053679;28;20129;-76
2022/10/20 04:43:08;;;;;;;12.88;7.88;;;;;;;8.89;80.91;96605.28;5052438;28;20045;-76
2022/10/20 04:45:36;;;;;;;17.10;10.93;;;;;;;8.88;80.79;96609.91;5053042;28;20108;-75
2022/10/20 04:48:06;;;;;;;19.33;9.27;;;;;;;8.82;81.14;96604.88;5052115;28;20119;-76
2022/10/20 04:50:33;;;;;;;12.27;8.23;;;;;;;8.87;81.03;96610.19;5052608;28;20049;-75
2022/10/20 04:52:59;;;;;;;12.13;7.90;;;;;;;8.87;80.85;96618.34;5052169;28;20052;-74
2022/10/20 04:55:26;;;;;;;13.55;8.38;;;;;;;8.82;81.32;96610.28;5052230;28;20041;-76
2022/10/20 04:57:52;;;;;;;11.65;8.02;;;;;;;8.90;81.48;96606.91;5051959;28;20136;-74
2022/10/20 05:00:19;;;;;;;15.50;8.35;;;;;;;8.85;81.00;96605.06;5050715;28;20503;-75
2022/10/20 05:02:46;;;;;;;13.23;8.45;;;;;;;8.86;80.67;96595.00;5051102;28;20047;-76
2022/10/20 05:05:13;;;;;;;11.95;8.13;;;;;;;8.87;80.84;96596.63;5050270;28;20037;-76
2022/10/20 05:07:40;;;;;;;10.63;7.68;;;;;;;8.89;80.94;96594.44;5050834;28;20041;-75
2022/10/20 05:10:07;;;;;;;11.50;7.97;;;;;;;8.82;81.29;96592.13;5052089;28;20421;-76
2022/10/20 05:12:34;;;;;;;16.75;8.48;;;;;;;8.83;81.00;96588.28;5055131;28;20495;-75
2022/10/20 05:15:00;;;;;;;14.10;8.48;;;;;;;8.76;81.65;96584.34;5055048;28;20071;-75
2022/10/20 05:17:29;;;;;;;12.73;8.80;;;;;;;8.78;81.19;96579.44;5054900;28;20041;-75
2022/10/20 05:19:55;;;;;;;13.02;8.02;;;;;;;8.72;81.61;96575.19;5055087;28;20049;-75
2022/10/20 05:22:23;;;;;;;14.30;7.88;;;;;;;8.73;81.45;96569.47;5054556;28;20182;-75
2022/10/20 05:24:50;;;;;;;15.23;8.63;;;;;;;8.64;82.00;96576.69;5055282;28;20044;-74
2022/10/20 05:27:16;;;;;;;12.23;8.73;;;;;;;8.60;81.87;96565.63;5054766;28;20041;-76
2022/10/20 05:29:43;;;;;;;13.57;8.00;;;;;;;8.57;81.83;96571.66;5056048;28;20415;-75
2022/10/20 05:32:10;;;;;;;16.52;8.75;;;;;;;8.54;81.53;96571.47;5054512;28;20048;-76
2022/10/20 05:34:37;;;;;;;16.58;8.57;;;;;;;8.47;81.99;96571.84;5055534;28;20408;-74
2022/10/20 05:37:04;;;;;;;15.50;8.35;;;;;;;8.38;82.59;96579.06;5054480;28;20045;-75
2022/10/20 05:39:32;;;;;;;12.45;8.02;;;;;;;8.34;82.42;96588.88;5054331;28;20435;-74
2022/10/20 05:41:58;;;;;;;13.10;8.10;;;;;;;8.41;82.53;96592.06;5054757;28;20067;-73
2022/10/20 05:44:25;;;;;;;15.90;9.80;;;;;;;8.46;82.44;96585.72;5053335;28;20067;-73
2022/10/20 05:46:52;;;;;;;10.68;8.23;;;;;;;8.42;82.76;96588.22;5053582;28;20049;-74
2022/10/20 05:49:18;;;;;;;15.07;8.73;;;;;;;8.36;82.25;96597.56;5053794;28;20522;-75
2022/10/20 05:51:46;;;;;;;14.75;8.55;;;;;;;8.33;82.45;96598.91;5055461;28;20448;-75
2022/10/20 05:54:14;;;;;;;14.95;8.95;;;;;;;8.31;82.13;96594.91;5051943;28;20040;-75
2022/10/20 05:56:42;;;;;;;13.13;7.88;;;;;;;8.41;82.12;96581.19;5054846;28;20048;-74
2022/10/20 05:59:09;;;;;;;11.95;7.97;;;;;;;8.34;81.86;96588.88;5054234;28;20048;-76
2022/10/20 06:01:46;;;;;;;12.85;7.65;;;;;;;8.42;82.14;96590.13;5054665;28;20068;-73
2022/10/20 06:04:13;;;;;;;17.75;8.52;;;;;;;8.40;82.01;96598.56;5054155;28;20462;-73
2022/10/20 06:06:40;;;;;;;14.10;7.97;;;;;;;8.37;81.96;96593.75;5054518;28;20703;-76
2022/10/20 06:09:08;;;;;;;14.15;7.35;;;;;;;8.31;81.54;96594.91;5054986;28;20045;-74
2022/10/20 06:11:35;;;;;;;16.60;8.10;;;;;;;8.30;82.04;96585.13;5054493;28;20045;-75
2022/10/20 06:14:03;;;;;;;14.50;7.75;;;;;;;8.29;82.07;96581.63;5053890;28;20041;-76
2022/10/20 06:16:31;;;;;;;13.60;7.47;;;;;;;8.37;81.96;96588.31;5054292;28;20040;-75
2022/10/20 06:18:58;;;;;;;12.18;7.57;;;;;;;8.41;81.73;96575.78;5054714;28;20403;-73
2022/10/20 06:21:27;;;;;;;13.32;7.85;;;;;;;8.42;81.93;96574.66;5053624;28;20045;-75
2022/10/20 06:23:54;;;;;;;11.63;7.57;;;;;;;8.42;82.17;96571.94;5054247;28;20076;-75
2022/10/20 06:26:23;;;;;;;13.95;8.27;;;;;;;8.33;82.51;96579.94;5053722;28;20128;-73
2022/10/20 06:28:52;;;;;;;16.08;7.97;;;;;;;8.34;82.35;96578.00;5054652;28;20411;-75
2022/10/20 06:31:21;;;;;;;17.17;8.63;;;;;;;8.47;82.12;96585.44;5055505;28;20045;-74
2022/10/20 06:33:48;;;;;;;16.35;8.38;;;;;;;8.44;81.76;96577.88;5054729;28;20045;-75
2022/10/20 06:36:15;;;;;;;11.65;7.78;;;;;;;8.55;81.96;96584.72;5054306;28;20051;-74
2022/10/20 06:38:42;;;;;;;11.98;7.85;;;;;;;8.57;82.55;96587.97;5056926;28;20048;-75
2022/10/20 06:41:10;;;;;;;15.27;7.57;;;;;;;8.66;81.84;96584.53;5057543;28;20127;-75
2022/10/20 06:43:37;;;;;;;16.00;7.57;;;;;;;8.66;81.52;96579.91;5057669;28;20451;-76
2022/10/20 06:46:06;;;;;;;14.73;8.32;;;;;;;8.61;81.46;96571.84;5054314;28;20057;-76
2022/10/20 06:48:35;;;;;;;13.13;7.50;;;;;;;8.54;81.45;96577.69;5055617;28;20056;-75
2022/10/20 06:51:04;;;;;;;13.52;7.78;;;;;;;8.54;81.84;96580.41;5054743;28;20037;-75
2022/10/20 06:53:31;;;;;;;10.98;7.68;;;;;;;8.58;81.95;96577.91;5053062;28;20415;-75
2022/10/20 06:55:59;;;;;;;13.43;7.65;;;;;;;8.55;82.07;96576.56;5053939;28;20458;-75
2022/10/20 06:58:26;;;;;;;15.85;7.95;;;;;;;8.52;82.28;96573.69;5056264;28;20047;-74
2022/10/20 07:01:00;;;;;;;11.68;7.82;;;;;;;8.52;82.09;96571.75;5056698;28;20049;-76
2022/10/20 07:03:27;;;;;;;13.60;7.78;;;;;;;8.51;82.80;96572.88;5056453;28;20074;-76
2022/10/20 07:05:56;;;;;;;12.10;7.85;;;;;;;8.53;82.24;96576.09;5057179;28;20045;-76
2022/10/20 07:08:24;;;;;;;10.57;7.47;;;;;;;8.65;82.28;96566.66;5056072;28;20063;-75
2022/10/20 07:10:59;;;;;;;12.85;8.18;;;;;;;8.75;82.81;96566.44;5055330;28;20052;-76
2022/10/20 07:13:25;;;;;;;14.02;7.90;;;;;;;8.78;82.25;96566.66;5054441;28;20052;-75
2022/10/20 07:15:53;;;;;;;19.67;8.10;;;;;;;8.88;82.18;96571.91;5054639;28;20055;-74
2022/10/20 07:18:20;;;;;;;13.38;7.25;;;;;;;8.89;81.39;96578.94;5054109;28;20044;-75
2022/10/20 07:20:46;;;;;;;14.00;7.03;;;;;;;9.04;81.21;96591.41;5054806;28;20393;-76
2022/10/20 07:23:14;;;;;;;13.73;7.68;;;;;;;9.20;81.36;96572.09;5053800;28;20041;-75
2022/10/20 07:25:41;;;;;;;14.18;7.35;;;;;;;9.21;81.22;96581.84;5054189;28;20432;-75
2022/10/20 07:28:08;;;;;;;11.48;6.72;;;;;;;9.37;80.67;96580.41;5053715;28;20049;-76
2022/10/20 07:30:38;;;;;;;14.23;7.60;;;;;;;9.40;80.69;96574.38;5053738;28;20073;-76
2022/10/20 07:33:04;;;;;;;12.25;7.32;;;;;;;9.41;80.14;96574.06;5052952;28;20045;-76
2022/10/20 07:35:31;;;;;;;12.25;7.30;;;;;;;9.47;79.83;96569.31;5053679;28;20048;-74
2022/10/20 07:37:58;;;;;;;12.13;7.10;;;;;;;9.51;79.85;96567.59;5053732;28;20048;-76
2022/10/20 07:40:26;;;;;;;9.57;7.15;;;;;;;9.55;79.97;96560.47;5053712;28;20051;-75
2022/10/20 07:42:52;;;;;;;14.50;7.20;;;;;;;9.76;79.12;96554.53;5054070;28;20049;-75
2022/10/20 07:45:19;;;;;;;13.75;7.10;;;;;;;9.78;78.54;96560.47;5052755;28;20068;-75
2022/10/20 07:47:46;;;;;;;10.40;6.93;;;;;;;9.86;78.54;96563.25;5054560;28;20059;-75
2022/10/20 07:50:12;;;;;;;11.43;7.13;;;;;;;9.83;78.31;96557.66;5053754;28;20529;-76
2022/10/20 07:52:39;;;;;;;12.30;6.70;;;;;;;10.06;78.70;96561.16;5054681;28;20476;-76
2022/10/20 07:55:06;;;;;;;10.55;6.90;;;;;;;10.25;77.59;96569.19;5054253;28;20056;-77
2022/10/20 07:57:34;;;;;;;10.18;6.45;;;;;;;10.48;75.51;96548.97;5053918;28;20547;-76
2022/10/20 08:00:01;;;;;;;9.50;7.00;;;;;;;10.70;76.37;96548.94;5053905;28;20049;-77
2022/10/20 08:02:27;;;;;;;10.68;6.10;;;;;;;10.67;74.71;96548.75;5053516;28;20047;-76
2022/10/20 08:04:54;;;;;;;18.45;6.63;;;;;;;10.84;74.10;96542.56;5054101;28;20049;-77
2022/10/20 08:07:20;;;;;;;11.25;6.90;;;;;;;10.78;74.37;96557.44;5053297;28;20041;-78
2022/10/20 08:09:47;;;;;;;9.18;6.10;;;;;;;10.77;73.94;96559.38;5053233;28;20045;-74
2022/10/20 08:12:13;;;;;;;13.13;6.45;;;;;;;10.71;75.18;96552.47;5052268;28;20535;-74
2022/10/20 08:14:43;;;;;;;10.60;6.43;;;;;;;10.85;74.78;96549.63;5052521;28;20045;-73
2022/10/20 08:17:10;;;;;;;13.77;6.57;;;;;;;11.10;75.33;96548.91;5052248;28;20454;-73
2022/10/20 08:19:36;;;;;;;8.38;5.95;;;;;;;11.27;73.66;96541.88;5052637;28;20051;-75
2022/10/20 08:22:03;;;;;;;8.73;5.93;;;;;;;11.45;73.80;96540.81;5051919;28;20087;-74
2022/10/20 08:24:30;;;;;;;9.07;5.95;;;;;;;11.52;72.68;96546.59;5052733;28;20045;-75
2022/10/20 08:26:56;;;;;;;16.25;7.10;;;;;;;11.65;73.12;96540.19;5052515;28;20063;-74
2022/10/20 08:29:23;;;;;;;10.15;7.25;;;;;;;11.74;71.82;96540.19;5051975;28;20119;-74
2022/10/20 08:31:51;;;;;;;12.30;6.22;;;;;;;11.74;71.45;96538.28;5052161;28;20053;-74
2022/10/20 08:34:17;;;;;;;11.52;6.10;;;;;;;11.90;71.85;96543.25;5051787;28;20045;-75
2022/10/20 08:36:44;;;;;;;10.30;7.00;;;;;;;11.83;71.59;96534.75;5052286;28;20051;-74
2022/10/20 08:39:10;;;;;;;10.95;6.30;;;;;;;11.96;71.45;96533.81;5051421;28;20467;-74
2022/10/20 08:41:42;;;;;;;11.90;6.30;;;;;;;11.86;71.01;96534.13;5051933;28;20097;-74
2022/10/20 08:44:14;;;;;;;9.43;6.35;;;;;;;11.87;70.95;96531.06;5050341;28;20044;-75
2022/10/20 08:46:41;;;;;;;11.10;6.28;;;;;;;11.82;71.50;96527.72;5052063;28;20049;-75
2022/10/20 08:49:19;;;;;;;10.00;6.47;;;;;;;11.70;71.86;96525.59;5051855;28;20045;-74
2022/10/20 08:51:46;;;;;;;9.50;6.40;;;;;;;11.75;72.48;96522.72;5052236;28;20055;-73
2022/10/20 08:54:15;;;;;;;10.70;6.53;;;;;;;12.01;73.03;96520.00;5051314;28;20045;-75
2022/10/20 08:56:43;;;;;;;12.02;7.18;;;;;;;12.11;72.21;96519.66;5051712;28;20055;-75
2022/10/20 08:59:24;;;;;;;9.43;6.55;;;;;;;12.12;72.73;96518.53;5051293;28;20103;-76
2022/10/20 09:01:51;;;;;;;12.70;7.03;;;;;;;12.15;72.25;96520.59;5051954;28;20056;-76
2022/10/20 09:04:21;;;;;;;10.15;6.80;;;;;;;12.17;71.98;96523.81;5051457;28;20051;-75
2022/10/20 09:06:53;;;;;;;9.68;6.55;;;;;;;12.25;71.71;96531.19;5051899;28;20492;-75
2022/10/20 09:09:22;;;;;;;11.07;6.65;;;;;;;12.33;71.42;96526.03;5051525;28;20041;-74
2022/10/20 09:11:49;;;;;;;12.52;6.97;;;;;;;12.31;72.25;96522.81;5052266;28;20045;-74
2022/10/20 09:14:16;;;;;;;10.18;6.97;;;;;;;12.41;72.44;96514.28;5051425;28;20041;-74
2022/10/20 09:16:45;;;;;;;10.93;6.80;;;;;;;12.56;71.89;96516.50;5051549;28;20045;-75
2022/10/20 09:19:17;;;;;;;10.60;6.68;;;;;;;12.69;71.43;96510.03;5051859;28;20045;-76
2022/10/20 09:21:49;;;;;;;12.10;6.75;;;;;;;12.64;70.70;96503.94;5052089;28;20053;-76
2022/10/20 09:24:17;;;;;;;10.68;6.93;;;;;;;12.52;70.09;96491.75;5034153;28;20045;-76
2022/10/20 09:26:45;;;;;;;11.82;6.95;;;;;;;12.66;71.03;96494.28;5034393;28;20045;-76
2022/10/20 09:29:14;;;;;;;9.65;6.80;;;;;;;12.64;71.13;96490.28;5051704;28;20060;-75
2022/10/20 09:31:43;;;;;;;9.30;6.65;;;;;;;12.79;71.34;96489.75;5051932;28;20053;-76
2022/10/20 09:34:24;;;;;;;11.65;6.93;;;;;;;12.86;71.20;96484.56;5051343;28;20427;-75
2022/10/20 09:36:55;;;;;;;12.70;6.63;;;;;;;13.16;70.52;96492.75;5052029;28;20045;-76
2022/10/20 09:39:26;;;;;;;11.25;6.28;;;;;;;13.31;69.97;96484.81;5051891;28;20056;-75
2022/10/20 09:42:00;;;;;;;11.70;7.55;;;;;;;13.37;69.83;96499.09;5035277;28;20045;-75
2022/10/20 09:44:27;;;;;;;8.40;6.45;;;;;;;13.47;69.04;96503.38;5051662;28;20514;-76
2022/10/20 09:46:54;;;;;;;11.70;6.38;;;;;;;13.62;68.82;96500.00;5051555;28;20488;-75
2022/10/20 09:49:25;;;;;;;12.05;6.35;;;;;;;13.75;69.04;96488.00;5053097;28;20049;-75
2022/10/20 09:51:53;;;;;;;9.65;6.10;;;;;;;13.92;70.38;96487.03;5053260;28;20491;-74
2022/10/20 09:54:23;;;;;;;11.20;6.97;;;;;;;13.84;67.86;96491.47;5053297;28;20064;-74
2022/10/20 09:56:51;;;;;;;10.13;6.53;;;;;;;13.96;68.23;96503.59;5054833;28;20041;-74
2022/10/20 09:59:22;;;;;;;12.07;7.43;;;;;;;14.07;67.96;96493.84;5055907;28;20503;-74
2022/10/20 10:01:54;;;;;;;11.65;7.20;;;;;;;13.98;67.22;96501.31;5038682;28;20041;-74
2022/10/20 10:04:31;;;;;;;13.00;7.55;;;;;;;14.13;67.75;96497.16;5054642;28;20040;-77
2022/10/20 10:06:59;;;;;;;11.45;6.65;;;;;;;14.30;67.44;96497.81;5055344;28;20047;-76
2022/10/20 10:09:32;;;;;;;9.73;6.60;;;;;;;14.47;67.06;96496.00;5054601;28;20052;-76
2022/10/20 10:12:02;;;;;;;9.60;6.53;;;;;;;14.48;66.51;96492.97;5056256;28;20045;-76
2022/10/20 10:14:29;;;;;;;10.52;6.60;;;;;;;14.55;66.30;96493.19;5056911;28;20051;-75
2022/10/20 10:16:56;;;;;;;11.23;7.07;;;;;;;14.54;67.12;96496.28;5060634;28;20049;-75
2022/10/20 10:19:26;;;;;;;10.20;6.43;;;;;;;14.55;66.24;96486.91;5062842;28;20059;-76
2022/10/20 10:21:56;;;;;;;11.15;6.30;;;;;;;14.77;65.74;96488.41;5063659;28;20112;-76
2022/10/20 10:24:46;;;;;;;10.02;6.00;;;;;;;14.88;65.47;96490.38;5061798;28;20049;-77
2022/10/20 10:27:23;;;;;;;9.23;6.28;;;;;;;14.97;65.30;96486.72;5056779;28;20056;-76
2022/10/20 10:29:49;;;;;;;10.70;7.05;;;;;;;14.99;65.33;96477.00;5061414;28;20045;-78
2022/10/20 10:32:18;;;;;;;8.70;6.30;;;;;;;15.00;64.94;96481.34;5058320;28;20051;-76
2022/10/20 10:35:07;;;;;;;10.90;6.85;;;;;;;15.15;65.46;96471.63;5057302;28;20045;-74
2022/10/20 10:37:35;;;;;;;12.70;6.50;;;;;;;15.14;65.73;96470.03;5057610;28;20101;-74
2022/10/20 10:40:12;;;;;;;10.75;6.50;;;;;;;15.10;64.88;96480.09;5057093;28;20059;-79
2022/10/20 10:43:15;;;;;;;11.65;6.55;;;;;;;15.07;64.44;96486.25;5058583;28;20045;-75
2022/10/20 10:45:48;;;;;;;9.35;6.32;;;;;;;15.13;65.35;96468.41;5044967;28;20045;-77
2022/10/20 10:49:08;;;;;;;12.05;6.28;;;;;;;14.99;65.47;96462.50;5060633;28;20051;-74
2022/10/20 10:51:49;;;;;;;9.85;6.65;;;;;;;14.73;67.22;96455.44;4976797;28;20106;-76
2022/10/20 10:54:30;;;;;;;12.05;7.28;;;;;;;14.57;68.86;96451.75;4976469;28;20057;-74
2022/10/20 10:57:03;;;;;;;12.32;7.00;;;;;;;14.63;68.73;96450.38;5027615;28;20068;-75
2022/10/20 10:59:34;;;;;;;14.98;7.60;;;;;;;14.64;68.92;96449.25;5057394;28;20506;-75
2022/10/20 11:02:23;;;;;;;11.60;7.07;;;;;;;14.66;68.78;96448.91;5056011;28;20075;-75
2022/10/20 11:05:27;;;;;;;9.38;6.63;;;;;;;14.66;68.89;96443.41;5054819;28;20060;-74
2022/10/20 11:08:00;;;;;;;;;;;;;;;14.70;68.90;96441.59;5055004;28;20111;-74
2022/10/20 11:10:38;;;;;;;9.40;6.80;;;;;;;14.73;68.49;96438.97;5054356;28;19921;-75
2022/10/20 11:13:19;;;;;;;10.95;7.45;;;;;;;14.74;69.38;96432.34;5055118;28;20052;-75
2022/10/20 11:15:58;;;;;;;10.40;6.78;;;;;;;14.69;67.46;96420.81;5054861;28;20052;-76
2022/10/20 11:19:01;;;;;;;13.80;7.97;;;;;;;14.69;68.25;96421.59;5056748;28;20048;-76
2022/10/20 11:21:35;;;;;;;11.13;6.63;;;;;;;14.76;68.61;96432.78;5045602;28;20119;-75
2022/10/20 11:24:16;;;;;;;11.75;6.13;;;;;;;14.84;67.87;96431.88;5054371;28;20051;-75
2022/10/20 11:26:46;;;;;;;10.30;6.75;;;;;;;14.90;67.70;96420.69;5055503;28;20052;-75
2022/10/20 11:29:19;;;;;;;8.52;6.30;;;;;;;15.02;67.20;96417.94;5055149;28;20600;-74
2022/10/20 11:31:50;;;;;;;8.27;6.05;;;;;;;15.03;66.35;96409.34;5055458;28;20087;-74
2022/10/20 11:34:27;;;;;;;10.00;6.50;;;;;;;15.08;66.25;96400.88;5055533;28;20049;-75
2022/10/20 11:37:02;;;;;;;10.52;6.70;;;;;;;15.07;65.90;96399.28;5055910;28;20521;-75
2022/10/20 11:39:37;;;;;;;11.40;6.57;;;;;;;15.14;65.43;96399.53;5055347;28;20041;-74
2022/10/20 11:42:18;;;;;;;8.27;6.20;;;;;;;15.12;64.85;96382.59;5036798;28;20055;-75